sensor_id;sensor_type;location;lat;lon;timestamp;P1;durP1;ratioP1;P2;durP2;ratioP2
21272;SDS011;36726;52.328;10.552;2023-04-25T00:00:16;8.23;;;3.60;;
21272;SDS011;36726;52.328;10.552;2023-04-25T00:02:43;8.65;;;3.78;;
21272;SDS011;36726;52.328;10.552;2023-04-25T00:05:10;9.23;;;3.95;;
21272;SDS011;36726;52.328;10.552;2023-04-25T00:07:37;7.88;;;3.90;;
21272;SDS011;36726;52.328;10.552;2023-04-25T00:10:04;7.68;;;3.83;;
21272;SDS011;36726;52.328;10.552;2023-04-25T00:12:32;10.63;;;4.18;;
21272;SDS011;36726;52.328;10.552;2023-04-25T00:14:59;9.38;;;3.45;;
21272;SDS011;36726;52.328;10.552;2023-04-25T00:17:26;8.55;;;3.35;;
21272;SDS011;36726;52.328;10.552;2023-04-25T00:19:53;12.13;;;3.55;;
21272;SDS011;36726;52.328;10.552;2023-04-25T00:22:20;9.88;;;3.58;;
21272;SDS011;36726;52.328;10.552;2023-04-25T00:24:47;9.77;;;3.08;;
21272;SDS011;36726;52.328;10.552;2023-04-25T00:27:13;12.18;;;3.50;;
21272;SDS011;36726;52.328;10.552;2023-04-25T00:29:40;9.43;;;4.07;;
21272;SDS011;36726;52.328;10.552;2023-04-25T00:32:08;7.50;;;3.80;;
21272;SDS011;36726;52.328;10.552;2023-04-25T00:34:34;10.30;;;3.65;;
21272;SDS011;36726;52.328;10.552;2023-04-25T00:37:01;9.82;;;3.78;;
21272;SDS011;36726;52.328;10.552;2023-04-25T00:39:28;7.53;;;3.47;;
21272;SDS011;36726;52.328;10.552;2023-04-25T00:41:55;8.55;;;3.95;;
21272;SDS011;36726;52.328;10.552;2023-04-25T00:44:21;10.77;;;3.72;;
21272;SDS011;36726;52.328;10.552;2023-04-25T00:46:48;7.97;;;3.55;;
21272;SDS011;36726;52.328;10.552;2023-04-25T00:49:16;7.07;;;3.75;;
21272;SDS011;36726;52.328;10.552;2023-04-25T00:51:43;8.45;;;4.00;;
21272;SDS011;36726;52.328;10.552;2023-04-25T00:54:11;8.23;;;3.40;;
21272;SDS011;36726;52.328;10.552;2023-04-25T00:56:39;5.22;;;3.05;;
21272;SDS011;36726;52.328;10.552;2023-04-25T00:59:07;7.53;;;3.70;;
21272;SDS011;36726;52.328;10.552;2023-04-25T01:01:38;9.38;;;3.55;;
21272;SDS011;36726;52.328;10.552;2023-04-25T01:04:05;10.65;;;4.07;;
21272;SDS011;36726;52.328;10.552;2023-04-25T01:06:32;6.78;;;3.92;;
21272;SDS011;36726;52.328;10.552;2023-04-25T01:08:59;9.40;;;3.40;;
21272;SDS011;36726;52.328;10.552;2023-04-25T01:11:25;4.80;;;3.40;;
21272;SDS011;36726;52.328;10.552;2023-04-25T01:13:52;9.43;;;3.70;;
21272;SDS011;36726;52.328;10.552;2023-04-25T01:16:18;10.20;;;3.45;;
21272;SDS011;36726;52.328;10.552;2023-04-25T01:18:45;11.68;;;4.45;;
21272;SDS011;36726;52.328;10.552;2023-04-25T01:21:13;9.88;;;3.85;;
21272;SDS011;36726;52.328;10.552;2023-04-25T01:23:40;8.70;;;3.33;;
21272;SDS011;36726;52.328;10.552;2023-04-25T01:26:08;10.70;;;3.70;;
21272;SDS011;36726;52.328;10.552;2023-04-25T01:28:36;9.50;;;3.63;;
21272;SDS011;36726;52.328;10.552;2023-04-25T01:31:03;10.55;;;3.90;;
21272;SDS011;36726;52.328;10.552;2023-04-25T01:33:32;12.13;;;3.75;;
21272;SDS011;36726;52.328;10.552;2023-04-25T01:35:59;6.72;;;3.35;;
21272;SDS011;36726;52.328;10.552;2023-04-25T01:38:26;9.70;;;3.30;;
21272;SDS011;36726;52.328;10.552;2023-04-25T01:40:53;9.93;;;3.40;;
21272;SDS011;36726;52.328;10.552;2023-04-25T01:43:21;6.32;;;3.15;;
21272;SDS011;36726;52.328;10.552;2023-04-25T01:45:48;11.73;;;3.40;;
21272;SDS011;36726;52.328;10.552;2023-04-25T01:48:17;6.53;;;3.33;;
21272;SDS011;36726;52.328;10.552;2023-04-25T01:50:45;8.45;;;3.28;;
21272;SDS011;36726;52.328;10.552;2023-04-25T01:53:12;8.23;;;3.45;;
21272;SDS011;36726;52.328;10.552;2023-04-25T01:55:43;9.63;;;4.25;;
21272;SDS011;36726;52.328;10.552;2023-04-25T01:58:13;7.55;;;3.35;;
21272;SDS011;36726;52.328;10.552;2023-04-25T02:00:58;7.50;;;3.72;;
21272;SDS011;36726;52.328;10.552;2023-04-25T02:03:31;9.18;;;3.97;;
21272;SDS011;36726;52.328;10.552;2023-04-25T02:05:58;7.35;;;3.78;;
21272;SDS011;36726;52.328;10.552;2023-04-25T02:08:25;8.38;;;4.40;;
21272;SDS011;36726;52.328;10.552;2023-04-25T02:13:49;9.38;;;3.63;;
21272;SDS011;36726;52.328;10.552;2023-04-25T02:16:35;8.90;;;3.88;;
21272;SDS011;36726;52.328;10.552;2023-04-25T02:19:02;11.55;;;4.15;;
21272;SDS011;36726;52.328;10.552;2023-04-25T02:21:29;10.48;;;3.60;;
21272;SDS011;36726;52.328;10.552;2023-04-25T02:23:56;7.75;;;3.95;;
21272;SDS011;36726;52.328;10.552;2023-04-25T02:26:23;10.82;;;4.00;;
21272;SDS011;36726;52.328;10.552;2023-04-25T02:28:50;9.88;;;4.03;;
21272;SDS011;36726;52.328;10.552;2023-04-25T02:31:18;10.32;;;4.00;;
21272;SDS011;36726;52.328;10.552;2023-04-25T02:33:45;7.50;;;3.45;;
21272;SDS011;36726;52.328;10.552;2023-04-25T02:36:11;10.82;;;4.15;;
21272;SDS011;36726;52.328;10.552;2023-04-25T02:38:40;12.75;;;4.28;;
21272;SDS011;36726;52.328;10.552;2023-04-25T02:41:06;6.03;;;4.22;;
21272;SDS011;36726;52.328;10.552;2023-04-25T02:43:33;16.90;;;5.90;;
21272;SDS011;36726;52.328;10.552;2023-04-25T02:45:59;12.75;;;4.53;;
21272;SDS011;36726;52.328;10.552;2023-04-25T02:48:26;11.77;;;4.70;;
21272;SDS011;36726;52.328;10.552;2023-04-25T02:50:53;8.32;;;4.55;;
21272;SDS011;36726;52.328;10.552;2023-04-25T02:53:19;8.68;;;4.28;;
21272;SDS011;36726;52.328;10.552;2023-04-25T02:55:48;8.80;;;4.53;;
21272;SDS011;36726;52.328;10.552;2023-04-25T02:58:15;8.88;;;4.72;;
21272;SDS011;36726;52.328;10.552;2023-04-25T03:00:45;9.45;;;4.97;;
21272;SDS011;36726;52.328;10.552;2023-04-25T03:03:12;13.07;;;4.55;;
21272;SDS011;36726;52.328;10.552;2023-04-25T03:05:39;13.88;;;5.40;;
21272;SDS011;36726;52.328;10.552;2023-04-25T03:08:05;10.65;;;5.55;;
21272;SDS011;36726;52.328;10.552;2023-04-25T03:10:36;10.93;;;5.85;;
21272;SDS011;36726;52.328;10.552;2023-04-25T03:13:05;13.80;;;5.97;;
21272;SDS011;36726;52.328;10.552;2023-04-25T03:15:32;9.05;;;5.85;;
21272;SDS011;36726;52.328;10.552;2023-04-25T03:18:00;15.07;;;5.95;;
21272;SDS011;36726;52.328;10.552;2023-04-25T03:20:27;12.55;;;5.85;;
21272;SDS011;36726;52.328;10.552;2023-04-25T03:22:54;10.80;;;5.35;;
21272;SDS011;36726;52.328;10.552;2023-04-25T03:25:21;14.23;;;5.70;;
21272;SDS011;36726;52.328;10.552;2023-04-25T03:27:47;12.70;;;6.03;;
21272;SDS011;36726;52.328;10.552;2023-04-25T03:30:14;10.18;;;6.25;;
21272;SDS011;36726;52.328;10.552;2023-04-25T03:32:42;11.68;;;6.28;;
21272;SDS011;36726;52.328;10.552;2023-04-25T03:35:09;8.98;;;5.45;;
21272;SDS011;36726;52.328;10.552;2023-04-25T03:37:36;11.85;;;5.43;;
21272;SDS011;36726;52.328;10.552;2023-04-25T03:40:02;11.90;;;5.93;;
21272;SDS011;36726;52.328;10.552;2023-04-25T03:42:50;12.25;;;5.38;;
21272;SDS011;36726;52.328;10.552;2023-04-25T03:45:17;11.55;;;5.28;;
21272;SDS011;36726;52.328;10.552;2023-04-25T03:47:43;9.38;;;4.85;;
21272;SDS011;36726;52.328;10.552;2023-04-25T03:50:10;10.35;;;4.47;;
21272;SDS011;36726;52.328;10.552;2023-04-25T03:52:36;8.80;;;3.85;;
21272;SDS011;36726;52.328;10.552;2023-04-25T03:55:03;10.13;;;3.38;;
21272;SDS011;36726;52.328;10.552;2023-04-25T03:57:31;10.20;;;3.95;;
21272;SDS011;36726;52.328;10.552;2023-04-25T03:59:57;11.32;;;3.08;;
21272;SDS011;36726;52.328;10.552;2023-04-25T04:02:25;11.30;;;3.25;;
21272;SDS011;36726;52.328;10.552;2023-04-25T04:04:52;13.13;;;3.58;;
21272;SDS011;36726;52.328;10.552;2023-04-25T04:07:20;10.70;;;3.10;;
21272;SDS011;36726;52.328;10.552;2023-04-25T04:09:49;11.25;;;3.90;;
21272;SDS011;36726;52.328;10.552;2023-04-25T04:12:24;10.00;;;3.38;;
21272;SDS011;36726;52.328;10.552;2023-04-25T04:14:51;11.00;;;3.47;;
21272;SDS011;36726;52.328;10.552;2023-04-25T04:17:17;10.02;;;3.13;;
21272;SDS011;36726;52.328;10.552;2023-04-25T04:19:44;11.38;;;3.65;;
21272;SDS011;36726;52.328;10.552;2023-04-25T04:22:15;15.93;;;3.97;;
21272;SDS011;36726;52.328;10.552;2023-04-25T04:24:41;11.70;;;3.80;;
21272;SDS011;36726;52.328;10.552;2023-04-25T04:27:19;14.18;;;3.95;;
21272;SDS011;36726;52.328;10.552;2023-04-25T04:29:52;12.88;;;3.58;;
21272;SDS011;36726;52.328;10.552;2023-04-25T04:32:24;11.32;;;3.58;;
21272;SDS011;36726;52.328;10.552;2023-04-25T04:34:52;18.38;;;3.90;;
21272;SDS011;36726;52.328;10.552;2023-04-25T04:37:22;13.07;;;3.90;;
21272;SDS011;36726;52.328;10.552;2023-04-25T04:39:48;13.02;;;3.92;;
21272;SDS011;36726;52.328;10.552;2023-04-25T04:42:27;11.32;;;3.20;;
21272;SDS011;36726;52.328;10.552;2023-04-25T04:45:06;9.88;;;3.60;;
21272;SDS011;36726;52.328;10.552;2023-04-25T04:47:43;10.30;;;3.47;;
21272;SDS011;36726;52.328;10.552;2023-04-25T04:50:30;12.90;;;3.58;;
21272;SDS011;36726;52.328;10.552;2023-04-25T04:53:21;14.52;;;3.60;;
21272;SDS011;36726;52.328;10.552;2023-04-25T04:56:08;10.80;;;3.17;;
21272;SDS011;36726;52.328;10.552;2023-04-25T04:58:50;12.57;;;3.35;;
21272;SDS011;36726;52.328;10.552;2023-04-25T05:01:38;10.30;;;2.80;;
21272;SDS011;36726;52.328;10.552;2023-04-25T05:04:27;10.73;;;3.10;;
21272;SDS011;36726;52.328;10.552;2023-04-25T05:06:54;13.52;;;3.75;;
21272;SDS011;36726;52.328;10.552;2023-04-25T05:09:39;13.43;;;3.60;;
21272;SDS011;36726;52.328;10.552;2023-04-25T05:12:32;12.23;;;3.20;;
21272;SDS011;36726;52.328;10.552;2023-04-25T05:15:21;9.68;;;3.35;;
21272;SDS011;36726;52.328;10.552;2023-04-25T05:17:57;15.95;;;3.40;;
21272;SDS011;36726;52.328;10.552;2023-04-25T05:20:43;13.05;;;3.70;;
21272;SDS011;36726;52.328;10.552;2023-04-25T05:23:21;9.48;;;3.30;;
21272;SDS011;36726;52.328;10.552;2023-04-25T05:26:06;15.77;;;3.53;;
21272;SDS011;36726;52.328;10.552;2023-04-25T05:28:51;14.23;;;3.22;;
21272;SDS011;36726;52.328;10.552;2023-04-25T05:31:23;11.45;;;3.30;;
21272;SDS011;36726;52.328;10.552;2023-04-25T05:33:56;11.57;;;3.65;;
21272;SDS011;36726;52.328;10.552;2023-04-25T05:36:27;8.77;;;3.15;;
21272;SDS011;36726;52.328;10.552;2023-04-25T05:38:54;14.32;;;2.78;;
21272;SDS011;36726;52.328;10.552;2023-04-25T05:41:50;10.43;;;3.90;;
21272;SDS011;36726;52.328;10.552;2023-04-25T05:44:35;10.23;;;2.70;;
21272;SDS011;36726;52.328;10.552;2023-04-25T05:47:16;9.52;;;3.38;;
21272;SDS011;36726;52.328;10.552;2023-04-25T05:50:12;12.70;;;3.35;;
21272;SDS011;36726;52.328;10.552;2023-04-25T05:52:47;14.20;;;3.40;;
21272;SDS011;36726;52.328;10.552;2023-04-25T05:55:23;8.98;;;3.25;;
21272;SDS011;36726;52.328;10.552;2023-04-25T05:57:51;6.35;;;3.25;;
21272;SDS011;36726;52.328;10.552;2023-04-25T06:00:17;11.07;;;3.38;;
21272;SDS011;36726;52.328;10.552;2023-04-25T06:02:48;13.27;;;3.33;;
21272;SDS011;36726;52.328;10.552;2023-04-25T06:05:15;10.15;;;3.10;;
21272;SDS011;36726;52.328;10.552;2023-04-25T06:07:42;10.68;;;3.13;;
21272;SDS011;36726;52.328;10.552;2023-04-25T06:10:08;11.85;;;2.63;;
21272;SDS011;36726;52.328;10.552;2023-04-25T06:12:37;8.43;;;3.05;;
21272;SDS011;36726;52.328;10.552;2023-04-25T06:15:05;9.90;;;3.15;;
21272;SDS011;36726;52.328;10.552;2023-04-25T06:17:52;13.32;;;3.33;;
21272;SDS011;36726;52.328;10.552;2023-04-25T06:20:18;10.95;;;3.30;;
21272;SDS011;36726;52.328;10.552;2023-04-25T06:22:50;9.40;;;2.95;;
21272;SDS011;36726;52.328;10.552;2023-04-25T06:25:19;22.10;;;2.97;;
21272;SDS011;36726;52.328;10.552;2023-04-25T06:27:46;14.32;;;2.97;;
21272;SDS011;36726;52.328;10.552;2023-04-25T06:30:13;10.43;;;2.92;;
21272;SDS011;36726;52.328;10.552;2023-04-25T06:32:40;9.68;;;3.30;;
21272;SDS011;36726;52.328;10.552;2023-04-25T06:35:07;10.98;;;2.83;;
21272;SDS011;36726;52.328;10.552;2023-04-25T06:37:34;7.95;;;3.00;;
21272;SDS011;36726;52.328;10.552;2023-04-25T06:40:01;11.52;;;2.45;;
21272;SDS011;36726;52.328;10.552;2023-04-25T06:42:28;8.63;;;2.60;;
21272;SDS011;36726;52.328;10.552;2023-04-25T06:44:58;9.15;;;2.72;;
21272;SDS011;36726;52.328;10.552;2023-04-25T06:47:27;10.90;;;2.63;;
21272;SDS011;36726;52.328;10.552;2023-04-25T06:49:54;18.88;;;3.17;;
21272;SDS011;36726;52.328;10.552;2023-04-25T06:52:21;10.18;;;2.88;;
21272;SDS011;36726;52.328;10.552;2023-04-25T06:54:50;10.07;;;3.10;;
21272;SDS011;36726;52.328;10.552;2023-04-25T06:57:27;4.70;;;2.17;;
21272;SDS011;36726;52.328;10.552;2023-04-25T06:59:57;10.35;;;2.67;;
21272;SDS011;36726;52.328;10.552;2023-04-25T07:02:27;8.45;;;2.70;;
21272;SDS011;36726;52.328;10.552;2023-04-25T07:04:54;7.22;;;2.47;;
21272;SDS011;36726;52.328;10.552;2023-04-25T07:07:22;7.38;;;2.50;;
21272;SDS011;36726;52.328;10.552;2023-04-25T07:09:54;6.07;;;1.80;;
21272;SDS011;36726;52.328;10.552;2023-04-25T07:12:21;4.93;;;1.60;;
21272;SDS011;36726;52.328;10.552;2023-04-25T07:14:47;10.25;;;2.10;;
21272;SDS011;36726;52.328;10.552;2023-04-25T07:17:15;5.63;;;1.85;;
21272;SDS011;36726;52.328;10.552;2023-04-25T07:19:41;6.13;;;1.77;;
21272;SDS011;36726;52.328;10.552;2023-04-25T07:22:08;5.00;;;1.88;;
21272;SDS011;36726;52.328;10.552;2023-04-25T07:24:37;7.13;;;1.73;;
21272;SDS011;36726;52.328;10.552;2023-04-25T07:27:04;9.80;;;2.15;;
21272;SDS011;36726;52.328;10.552;2023-04-25T07:29:49;11.45;;;1.92;;
21272;SDS011;36726;52.328;10.552;2023-04-25T07:32:16;5.72;;;1.88;;
21272;SDS011;36726;52.328;10.552;2023-04-25T07:34:42;6.32;;;1.90;;
21272;SDS011;36726;52.328;10.552;2023-04-25T07:37:09;5.63;;;1.88;;
21272;SDS011;36726;52.328;10.552;2023-04-25T07:39:47;6.75;;;1.95;;
21272;SDS011;36726;52.328;10.552;2023-04-25T07:42:14;6.22;;;1.90;;
21272;SDS011;36726;52.328;10.552;2023-04-25T07:44:42;12.98;;;2.28;;
21272;SDS011;36726;52.328;10.552;2023-04-25T07:47:11;4.05;;;1.83;;
21272;SDS011;36726;52.328;10.552;2023-04-25T07:49:38;5.28;;;1.65;;
21272;SDS011;36726;52.328;10.552;2023-04-25T07:52:05;6.28;;;1.73;;
21272;SDS011;36726;52.328;10.552;2023-04-25T07:54:34;5.57;;;2.10;;
21272;SDS011;36726;52.328;10.552;2023-04-25T07:57:08;3.55;;;1.52;;
21272;SDS011;36726;52.328;10.552;2023-04-25T07:59:36;4.32;;;1.70;;
21272;SDS011;36726;52.328;10.552;2023-04-25T08:02:04;6.30;;;1.80;;
21272;SDS011;36726;52.328;10.552;2023-04-25T08:04:30;7.93;;;1.80;;
21272;SDS011;36726;52.328;10.552;2023-04-25T08:07:01;7.00;;;1.45;;
21272;SDS011;36726;52.328;10.552;2023-04-25T08:09:33;10.90;;;1.73;;
21272;SDS011;36726;52.328;10.552;2023-04-25T08:12:04;8.05;;;1.75;;
21272;SDS011;36726;52.328;10.552;2023-04-25T08:14:32;4.85;;;1.75;;
21272;SDS011;36726;52.328;10.552;2023-04-25T08:17:03;7.10;;;2.45;;
21272;SDS011;36726;52.328;10.552;2023-04-25T08:19:31;4.60;;;2.03;;
21272;SDS011;36726;52.328;10.552;2023-04-25T08:21:58;5.80;;;2.13;;
21272;SDS011;36726;52.328;10.552;2023-04-25T08:24:34;5.28;;;1.88;;
21272;SDS011;36726;52.328;10.552;2023-04-25T08:27:04;6.45;;;1.83;;
21272;SDS011;36726;52.328;10.552;2023-04-25T08:29:33;6.85;;;2.13;;
21272;SDS011;36726;52.328;10.552;2023-04-25T08:32:01;4.07;;;1.95;;
21272;SDS011;36726;52.328;10.552;2023-04-25T08:34:28;7.45;;;1.90;;
21272;SDS011;36726;52.328;10.552;2023-04-25T08:36:55;11.25;;;2.13;;
21272;SDS011;36726;52.328;10.552;2023-04-25T08:39:29;7.00;;;2.15;;
21272;SDS011;36726;52.328;10.552;2023-04-25T08:42:14;5.90;;;1.90;;
21272;SDS011;36726;52.328;10.552;2023-04-25T08:44:42;6.15;;;1.98;;
21272;SDS011;36726;52.328;10.552;2023-04-25T08:47:09;9.10;;;2.42;;
21272;SDS011;36726;52.328;10.552;2023-04-25T08:49:45;5.32;;;1.88;;
21272;SDS011;36726;52.328;10.552;2023-04-25T08:52:13;5.10;;;2.15;;
21272;SDS011;36726;52.328;10.552;2023-04-25T08:54:43;5.32;;;2.17;;
21272;SDS011;36726;52.328;10.552;2023-04-25T08:57:16;8.38;;;1.92;;
21272;SDS011;36726;52.328;10.552;2023-04-25T08:59:44;7.10;;;2.05;;
21272;SDS011;36726;52.328;10.552;2023-04-25T09:02:13;7.15;;;1.90;;
21272;SDS011;36726;52.328;10.552;2023-04-25T09:04:44;3.97;;;1.80;;
21272;SDS011;36726;52.328;10.552;2023-04-25T09:07:12;7.20;;;1.80;;
21272;SDS011;36726;52.328;10.552;2023-04-25T09:09:38;4.65;;;1.92;;
21272;SDS011;36726;52.328;10.552;2023-04-25T09:12:07;7.25;;;2.33;;
21272;SDS011;36726;52.328;10.552;2023-04-25T09:14:34;5.55;;;1.83;;
21272;SDS011;36726;52.328;10.552;2023-04-25T09:17:14;9.77;;;1.83;;
21272;SDS011;36726;52.328;10.552;2023-04-25T09:19:44;4.85;;;1.50;;
21272;SDS011;36726;52.328;10.552;2023-04-25T09:22:22;6.68;;;1.70;;
21272;SDS011;36726;52.328;10.552;2023-04-25T09:24:49;6.75;;;1.48;;
21272;SDS011;36726;52.328;10.552;2023-04-25T09:27:19;4.72;;;1.90;;
21272;SDS011;36726;52.328;10.552;2023-04-25T09:29:57;2.45;;;1.23;;
21272;SDS011;36726;52.328;10.552;2023-04-25T09:32:41;3.85;;;2.15;;
21272;SDS011;36726;52.328;10.552;2023-04-25T09:35:09;4.00;;;1.80;;
21272;SDS011;36726;52.328;10.552;2023-04-25T09:37:36;2.78;;;1.33;;
21272;SDS011;36726;52.328;10.552;2023-04-25T09:40:22;4.90;;;1.40;;
21272;SDS011;36726;52.328;10.552;2023-04-25T09:43:08;6.95;;;1.75;;
21272;SDS011;36726;52.328;10.552;2023-04-25T09:45:40;4.25;;;1.40;;
21272;SDS011;36726;52.328;10.552;2023-04-25T09:48:19;2.78;;;1.30;;
21272;SDS011;36726;52.328;10.552;2023-04-25T09:53:37;4.50;;;1.33;;
21272;SDS011;36726;52.328;10.552;2023-04-25T09:56:28;7.38;;;1.25;;
21272;SDS011;36726;52.328;10.552;2023-04-25T09:59:03;5.00;;;1.38;;
21272;SDS011;36726;52.328;10.552;2023-04-25T10:01:32;3.38;;;1.48;;
21272;SDS011;36726;52.328;10.552;2023-04-25T10:04:23;3.70;;;1.15;;
21272;SDS011;36726;52.328;10.552;2023-04-25T10:06:59;4.47;;;1.40;;
21272;SDS011;36726;52.328;10.552;2023-04-25T10:09:26;5.93;;;1.48;;
21272;SDS011;36726;52.328;10.552;2023-04-25T10:11:56;3.92;;;1.30;;
21272;SDS011;36726;52.328;10.552;2023-04-25T10:14:23;6.03;;;1.52;;
21272;SDS011;36726;52.328;10.552;2023-04-25T10:16:51;9.50;;;1.50;;
21272;SDS011;36726;52.328;10.552;2023-04-25T10:19:20;6.53;;;1.52;;
21272;SDS011;36726;52.328;10.552;2023-04-25T10:24:32;2.88;;;1.13;;
21272;SDS011;36726;52.328;10.552;2023-04-25T10:27:01;3.83;;;1.48;;
21272;SDS011;36726;52.328;10.552;2023-04-25T10:29:28;4.22;;;1.27;;
21272;SDS011;36726;52.328;10.552;2023-04-25T10:31:55;3.40;;;1.30;;
21272;SDS011;36726;52.328;10.552;2023-04-25T10:37:19;4.57;;;1.30;;
21272;SDS011;36726;52.328;10.552;2023-04-25T10:39:46;2.67;;;1.20;;
21272;SDS011;36726;52.328;10.552;2023-04-25T10:42:28;3.70;;;1.38;;
21272;SDS011;36726;52.328;10.552;2023-04-25T10:45:01;4.82;;;1.40;;
21272;SDS011;36726;52.328;10.552;2023-04-25T10:47:34;6.18;;;1.17;;
21272;SDS011;36726;52.328;10.552;2023-04-25T10:50:07;3.03;;;0.82;;
21272;SDS011;36726;52.328;10.552;2023-04-25T10:52:34;2.05;;;1.00;;
21272;SDS011;36726;52.328;10.552;2023-04-25T10:55:02;4.57;;;1.02;;
21272;SDS011;36726;52.328;10.552;2023-04-25T10:57:30;3.53;;;1.02;;
21272;SDS011;36726;52.328;10.552;2023-04-25T10:59:59;3.42;;;1.30;;
21272;SDS011;36726;52.328;10.552;2023-04-25T11:02:27;2.30;;;1.10;;
21272;SDS011;36726;52.328;10.552;2023-04-25T11:04:56;1.42;;;0.73;;
21272;SDS011;36726;52.328;10.552;2023-04-25T11:07:33;4.00;;;1.30;;
21272;SDS011;36726;52.328;10.552;2023-04-25T11:10:04;3.03;;;0.95;;
21272;SDS011;36726;52.328;10.552;2023-04-25T11:12:31;4.43;;;1.40;;
21272;SDS011;36726;52.328;10.552;2023-04-25T11:15:02;2.60;;;1.02;;
21272;SDS011;36726;52.328;10.552;2023-04-25T11:17:30;3.53;;;1.40;;
21272;SDS011;36726;52.328;10.552;2023-04-25T11:19:58;4.03;;;1.38;;
21272;SDS011;36726;52.328;10.552;2023-04-25T11:22:26;3.05;;;1.10;;
21272;SDS011;36726;52.328;10.552;2023-04-25T11:24:53;3.50;;;1.10;;
21272;SDS011;36726;52.328;10.552;2023-04-25T11:27:20;3.92;;;1.42;;
21272;SDS011;36726;52.328;10.552;2023-04-25T11:29:47;4.05;;;1.00;;
21272;SDS011;36726;52.328;10.552;2023-04-25T11:32:15;2.88;;;1.33;;
21272;SDS011;36726;52.328;10.552;2023-04-25T11:34:43;4.70;;;1.35;;
21272;SDS011;36726;52.328;10.552;2023-04-25T11:37:11;5.53;;;1.35;;
21272;SDS011;36726;52.328;10.552;2023-04-25T11:39:42;4.30;;;0.95;;
21272;SDS011;36726;52.328;10.552;2023-04-25T11:42:09;2.55;;;1.10;;
21272;SDS011;36726;52.328;10.552;2023-04-25T11:44:39;5.32;;;1.23;;
21272;SDS011;36726;52.328;10.552;2023-04-25T11:47:06;2.90;;;1.00;;
21272;SDS011;36726;52.328;10.552;2023-04-25T11:49:33;2.72;;;1.40;;
21272;SDS011;36726;52.328;10.552;2023-04-25T11:52:02;8.60;;;1.55;;
21272;SDS011;36726;52.328;10.552;2023-04-25T11:54:29;6.22;;;1.48;;
21272;SDS011;36726;52.328;10.552;2023-04-25T11:56:55;4.53;;;1.50;;
21272;SDS011;36726;52.328;10.552;2023-04-25T11:59:23;1.83;;;0.95;;
21272;SDS011;36726;52.328;10.552;2023-04-25T12:01:51;4.57;;;1.35;;
21272;SDS011;36726;52.328;10.552;2023-04-25T12:04:21;5.82;;;1.20;;
21272;SDS011;36726;52.328;10.552;2023-04-25T12:06:51;3.42;;;1.10;;
21272;SDS011;36726;52.328;10.552;2023-04-25T12:09:20;4.05;;;1.27;;
21272;SDS011;36726;52.328;10.552;2023-04-25T12:11:54;3.97;;;1.33;;
21272;SDS011;36726;52.328;10.552;2023-04-25T12:14:27;4.70;;;1.23;;
21272;SDS011;36726;52.328;10.552;2023-04-25T12:17:02;3.65;;;1.40;;
21272;SDS011;36726;52.328;10.552;2023-04-25T12:19:34;4.15;;;1.08;;
21272;SDS011;36726;52.328;10.552;2023-04-25T12:22:02;3.78;;;0.77;;
21272;SDS011;36726;52.328;10.552;2023-04-25T12:24:32;2.25;;;0.90;;
21272;SDS011;36726;52.328;10.552;2023-04-25T12:27:05;5.38;;;1.20;;
21272;SDS011;36726;52.328;10.552;2023-04-25T12:29:32;4.95;;;1.30;;
21272;SDS011;36726;52.328;10.552;2023-04-25T12:32:14;2.65;;;0.95;;
21272;SDS011;36726;52.328;10.552;2023-04-25T12:34:41;2.38;;;0.93;;
21272;SDS011;36726;52.328;10.552;2023-04-25T12:37:08;2.72;;;0.80;;
21272;SDS011;36726;52.328;10.552;2023-04-25T12:39:35;3.05;;;1.17;;
21272;SDS011;36726;52.328;10.552;2023-04-25T12:42:02;1.88;;;0.93;;
21272;SDS011;36726;52.328;10.552;2023-04-25T12:44:34;3.42;;;1.00;;
21272;SDS011;36726;52.328;10.552;2023-04-25T12:47:01;4.18;;;0.80;;
21272;SDS011;36726;52.328;10.552;2023-04-25T12:49:29;4.25;;;1.00;;
21272;SDS011;36726;52.328;10.552;2023-04-25T12:51:56;4.00;;;1.13;;
21272;SDS011;36726;52.328;10.552;2023-04-25T12:54:22;1.77;;;0.90;;
21272;SDS011;36726;52.328;10.552;2023-04-25T12:56:49;2.55;;;0.80;;
21272;SDS011;36726;52.328;10.552;2023-04-25T12:59:16;0.70;;;0.50;;
21272;SDS011;36726;52.328;10.552;2023-04-25T13:01:43;0.47;;;0.47;;
21272;SDS011;36726;52.328;10.552;2023-04-25T13:04:11;1.17;;;0.57;;
21272;SDS011;36726;52.328;10.552;2023-04-25T13:06:38;1.75;;;0.40;;
21272;SDS011;36726;52.328;10.552;2023-04-25T13:09:04;1.80;;;0.45;;
21272;SDS011;36726;52.328;10.552;2023-04-25T13:11:33;1.77;;;0.60;;
21272;SDS011;36726;52.328;10.552;2023-04-25T13:14:00;0.60;;;0.40;;
21272;SDS011;36726;52.328;10.552;2023-04-25T13:16:27;0.90;;;0.70;;
21272;SDS011;36726;52.328;10.552;2023-04-25T13:18:54;3.58;;;1.20;;
21272;SDS011;36726;52.328;10.552;2023-04-25T13:21:22;1.92;;;0.90;;
21272;SDS011;36726;52.328;10.552;2023-04-25T13:23:52;1.85;;;0.80;;
21272;SDS011;36726;52.328;10.552;2023-04-25T13:26:20;4.20;;;2.20;;
21272;SDS011;36726;52.328;10.552;2023-04-25T13:28:46;3.42;;;1.00;;
21272;SDS011;36726;52.328;10.552;2023-04-25T13:31:13;4.32;;;0.80;;
21272;SDS011;36726;52.328;10.552;2023-04-25T13:33:39;1.95;;;0.70;;
21272;SDS011;36726;52.328;10.552;2023-04-25T13:36:07;2.65;;;0.77;;
21272;SDS011;36726;52.328;10.552;2023-04-25T13:38:34;2.55;;;0.80;;
21272;SDS011;36726;52.328;10.552;2023-04-25T13:41:00;1.45;;;0.63;;
21272;SDS011;36726;52.328;10.552;2023-04-25T13:43:27;1.35;;;0.68;;
21272;SDS011;36726;52.328;10.552;2023-04-25T13:45:54;1.25;;;0.50;;
21272;SDS011;36726;52.328;10.552;2023-04-25T13:48:20;2.10;;;0.50;;
21272;SDS011;36726;52.328;10.552;2023-04-25T13:50:49;0.68;;;0.25;;
21272;SDS011;36726;52.328;10.552;2023-04-25T13:53:15;1.10;;;0.40;;
21272;SDS011;36726;52.328;10.552;2023-04-25T13:55:42;1.58;;;0.60;;
21272;SDS011;36726;52.328;10.552;2023-04-25T13:58:09;1.27;;;0.60;;
21272;SDS011;36726;52.328;10.552;2023-04-25T14:00:36;2.15;;;0.52;;
21272;SDS011;36726;52.328;10.552;2023-04-25T14:03:05;6.00;;;0.50;;
21272;SDS011;36726;52.328;10.552;2023-04-25T14:05:34;1.08;;;0.50;;
21272;SDS011;36726;52.328;10.552;2023-04-25T14:08:06;2.58;;;0.65;;
21272;SDS011;36726;52.328;10.552;2023-04-25T14:10:34;0.93;;;0.55;;
21272;SDS011;36726;52.328;10.552;2023-04-25T14:13:02;1.88;;;0.60;;
21272;SDS011;36726;52.328;10.552;2023-04-25T14:15:32;3.55;;;0.45;;
21272;SDS011;36726;52.328;10.552;2023-04-25T14:18:00;2.88;;;0.40;;
21272;SDS011;36726;52.328;10.552;2023-04-25T14:20:27;1.13;;;0.70;;
21272;SDS011;36726;52.328;10.552;2023-04-25T14:22:54;1.92;;;0.63;;
21272;SDS011;36726;52.328;10.552;2023-04-25T14:25:22;1.88;;;0.63;;
21272;SDS011;36726;52.328;10.552;2023-04-25T14:27:49;7.57;;;0.90;;
21272;SDS011;36726;52.328;10.552;2023-04-25T14:30:19;0.70;;;0.60;;
21272;SDS011;36726;52.328;10.552;2023-04-25T14:32:50;1.80;;;0.80;;
21272;SDS011;36726;52.328;10.552;2023-04-25T14:35:17;3.55;;;0.73;;
21272;SDS011;36726;52.328;10.552;2023-04-25T14:37:44;2.42;;;0.90;;
21272;SDS011;36726;52.328;10.552;2023-04-25T14:40:11;4.30;;;0.70;;
21272;SDS011;36726;52.328;10.552;2023-04-25T14:42:39;1.20;;;0.60;;
21272;SDS011;36726;52.328;10.552;2023-04-25T14:45:06;1.38;;;0.60;;
21272;SDS011;36726;52.328;10.552;2023-04-25T14:47:35;2.65;;;0.73;;
21272;SDS011;36726;52.328;10.552;2023-04-25T14:50:02;2.05;;;0.82;;
21272;SDS011;36726;52.328;10.552;2023-04-25T14:52:31;2.28;;;0.80;;
21272;SDS011;36726;52.328;10.552;2023-04-25T14:54:57;1.63;;;0.70;;
21272;SDS011;36726;52.328;10.552;2023-04-25T14:57:26;3.30;;;0.82;;